createdAt,value
2023-05-10T00:02:05.268Z,11.80
2023-05-10T00:04:33.936Z,11.80
2023-05-10T00:07:02.662Z,11.80
2023-05-10T00:09:31.391Z,11.80
2023-05-10T00:12:01.587Z,11.80
2023-05-10T00:14:30.271Z,11.70
2023-05-10T00:16:59.111Z,11.80
2023-05-10T00:19:27.917Z,11.60
2023-05-10T00:21:57.356Z,11.70
2023-05-10T00:24:26.218Z,11.60
2023-05-10T00:26:54.917Z,11.60
2023-05-10T00:29:25.112Z,11.60
2023-05-10T00:31:53.942Z,11.70
2023-05-10T00:34:22.872Z,11.70
2023-05-10T00:36:51.625Z,11.60
2023-05-10T00:39:20.261Z,11.60
2023-05-10T00:41:48.982Z,11.60
2023-05-10T00:44:17.938Z,11.50
2023-05-10T00:46:49.058Z,11.60
2023-05-10T00:49:18.716Z,11.60
2023-05-10T00:51:47.475Z,11.60
2023-05-10T00:54:18.137Z,11.60
2023-05-10T00:56:49.869Z,11.50
2023-05-10T00:59:19.242Z,11.50
2023-05-10T01:01:49.894Z,11.50
2023-05-10T01:04:18.629Z,11.50
2023-05-10T01:06:47.785Z,11.40
2023-05-10T01:09:16.693Z,11.30
2023-05-10T01:11:45.777Z,11.40
2023-05-10T01:14:14.630Z,11.40
2023-05-10T01:16:44.626Z,11.40
2023-05-10T01:19:22.028Z,11.40
2023-05-10T01:22:16.206Z,11.40
2023-05-10T01:25:26.482Z,11.30
2023-05-10T01:28:33.535Z,11.20
2023-05-10T01:31:32.975Z,11.20
2023-05-10T01:34:09.822Z,11.10
2023-05-10T01:36:49.860Z,11.10
2023-05-10T01:39:27.260Z,11.20
2023-05-10T01:42:06.137Z,11.10
2023-05-10T01:44:42.199Z,11.10
2023-05-10T01:47:16.979Z,11.20
2023-05-10T01:49:53.157Z,11.10
2023-05-10T01:52:31.293Z,10.90
2023-05-10T01:55:06.873Z,11.00
2023-05-10T01:57:40.578Z,11.00
2023-05-10T02:00:12.512Z,11.00
2023-05-10T02:02:44.488Z,11.00
2023-05-10T02:05:17.454Z,11.10
2023-05-10T02:07:47.620Z,11.00
2023-05-10T02:10:18.142Z,11.10
2023-05-10T02:12:50.898Z,10.90
2023-05-10T02:15:25.751Z,11.00
2023-05-10T02:17:58.075Z,10.90
2023-05-10T02:20:29.505Z,10.90
2023-05-10T02:23:00.073Z,10.80
2023-05-10T02:25:31.476Z,10.80
2023-05-10T02:28:03.906Z,10.80
2023-05-10T02:30:35.887Z,10.80
2023-05-10T02:33:06.731Z,10.80
2023-05-10T02:35:39.415Z,10.70
2023-05-10T02:38:10.946Z,10.70
2023-05-10T02:40:41.204Z,10.60
2023-05-10T02:43:15.436Z,10.60
2023-05-10T02:45:47.567Z,10.40
2023-05-10T02:48:16.595Z,10.40
2023-05-10T02:50:52.520Z,10.50
2023-05-10T02:53:30.041Z,10.50
2023-05-10T02:56:04.996Z,10.50
2023-05-10T02:58:33.759Z,10.40
2023-05-10T03:01:03.081Z,10.40
2023-05-10T03:03:31.741Z,10.40
2023-05-10T03:06:01.952Z,10.30
2023-05-10T03:08:31.306Z,10.30
2023-05-10T03:11:26.327Z,10.40
2023-05-10T03:14:12.468Z,10.50
2023-05-10T03:16:48.760Z,10.50
2023-05-10T03:19:26.978Z,10.30
2023-05-10T03:22:06.215Z,10.20
2023-05-10T03:24:38.903Z,10.30
2023-05-10T03:27:10.310Z,10.30
2023-05-10T03:29:40.576Z,10.40
2023-05-10T03:32:09.492Z,10.50
2023-05-10T03:34:44.732Z,10.50
2023-05-10T03:37:14.932Z,10.40
2023-05-10T03:39:43.755Z,10.30
2023-05-10T03:42:13.237Z,10.30
2023-05-10T03:44:42.113Z,10.40
2023-05-10T03:47:10.978Z,10.50
2023-05-10T03:49:39.692Z,10.60
2023-05-10T03:52:08.704Z,10.70
2023-05-10T03:54:38.809Z,10.90
2023-05-10T03:57:07.636Z,11.20
2023-05-10T03:59:36.509Z,11.40
2023-05-10T04:02:05.284Z,11.40
2023-05-10T04:04:33.954Z,11.50
2023-05-10T04:07:02.632Z,11.50
2023-05-10T04:09:31.309Z,11.50
2023-05-10T04:12:03.323Z,11.60
2023-05-10T04:14:32.007Z,12.00
2023-05-10T04:17:00.768Z,12.10
2023-05-10T04:19:32.597Z,12.50
2023-05-10T04:22:01.405Z,12.70
2023-05-10T04:24:30.162Z,12.80
2023-05-10T04:27:00.327Z,13.00
2023-05-10T04:29:29.051Z,13.30
2023-05-10T04:31:57.748Z,13.50
2023-05-10T04:34:27.106Z,13.50
2023-05-10T04:36:55.798Z,13.40
2023-05-10T04:39:24.692Z,13.70
2023-05-10T04:41:53.293Z,13.70
2023-05-10T04:44:23.431Z,13.60
2023-05-10T04:46:52.179Z,13.80
2023-05-10T04:49:21.019Z,14.10
2023-05-10T04:51:49.644Z,14.60
2023-05-10T04:54:18.500Z,14.80
2023-05-10T04:56:47.153Z,14.60
2023-05-10T04:59:15.903Z,15.00
2023-05-10T05:01:46.143Z,15.40
2023-05-10T05:04:15.699Z,15.70
2023-05-10T05:06:44.298Z,16.30
2023-05-10T05:09:13.003Z,15.80
2023-05-10T05:11:41.971Z,15.90
2023-05-10T05:14:10.726Z,16.90
2023-05-10T05:16:39.589Z,17.20
2023-05-10T05:19:09.672Z,17.30
2023-05-10T05:21:38.400Z,16.80
2023-05-10T05:24:08.814Z,17.20
2023-05-10T05:26:37.655Z,18.00
2023-05-10T05:29:06.456Z,18.00
2023-05-10T05:31:35.153Z,18.00
2023-05-10T05:34:05.356Z,18.10
2023-05-10T05:36:39.276Z,18.60
2023-05-10T05:39:08.486Z,18.10
2023-05-10T05:41:37.125Z,17.80
2023-05-10T05:44:05.908Z,17.80
2023-05-10T05:46:34.577Z,18.50
2023-05-10T05:49:03.368Z,19.10
2023-05-10T05:51:32.104Z,18.60
2023-05-10T05:54:02.183Z,18.90
2023-05-10T05:56:30.743Z,19.20
2023-05-10T05:58:59.500Z,19.00
2023-05-10T06:01:28.271Z,18.70
2023-05-10T06:03:57.000Z,17.40
2023-05-10T06:06:25.872Z,17.20
2023-05-10T06:08:54.507Z,16.90
2023-05-10T06:11:24.987Z,17.70
2023-05-10T06:13:53.608Z,17.40
2023-05-10T06:16:22.487Z,17.30
2023-05-10T06:18:51.217Z,17.60
2023-05-10T06:21:20.200Z,17.70
2023-05-10T06:23:48.966Z,17.30
2023-05-10T06:26:17.660Z,16.60
2023-05-10T06:28:47.751Z,16.40
2023-05-10T06:31:17.145Z,16.70
2023-05-10T06:33:45.966Z,17.30
2023-05-10T06:36:15.213Z,17.40
2023-05-10T06:38:44.050Z,17.10
2023-05-10T06:41:12.798Z,17.30
2023-05-10T06:43:42.522Z,17.70
2023-05-10T06:46:12.671Z,17.20
2023-05-10T06:48:41.639Z,17.60
2023-05-10T06:51:10.500Z,17.90
2023-05-10T06:53:39.278Z,18.00
2023-05-10T06:56:08.190Z,17.30
2023-05-10T06:58:36.877Z,17.30
2023-05-10T07:01:06.269Z,17.80
2023-05-10T07:03:36.804Z,17.60
2023-05-10T07:06:11.352Z,17.90
2023-05-10T07:08:44.693Z,19.00
2023-05-10T07:11:13.810Z,19.40
2023-05-10T07:13:45.219Z,19.70
2023-05-10T07:16:14.351Z,19.40
2023-05-10T07:18:44.527Z,19.20
2023-05-10T07:21:13.330Z,19.20
2023-05-10T07:23:43.664Z,18.90
2023-05-10T07:26:13.636Z,18.60
2023-05-10T07:28:42.302Z,18.80
2023-05-10T07:31:11.014Z,18.70
2023-05-10T07:33:39.993Z,18.60
2023-05-10T07:36:10.955Z,19.00
2023-05-10T07:38:40.917Z,18.60
2023-05-10T07:41:09.794Z,18.70
2023-05-10T07:43:38.531Z,19.30
2023-05-10T07:46:08.074Z,19.90
2023-05-10T07:48:36.706Z,20.50
2023-05-10T07:51:05.607Z,20.20
2023-05-10T07:53:36.295Z,20.00
2023-05-10T07:56:24.306Z,19.70
2023-05-10T07:58:53.477Z,19.60
2023-05-10T08:01:22.760Z,20.20
2023-05-10T08:03:52.492Z,20.20
2023-05-10T08:06:22.612Z,20.20
2023-05-10T08:08:53.290Z,20.40
2023-05-10T08:11:22.781Z,21.00
2023-05-10T08:13:52.895Z,20.60
2023-05-10T08:16:21.982Z,21.20
2023-05-10T08:18:51.782Z,21.40
2023-05-10T08:21:20.530Z,21.40
2023-05-10T08:23:50.059Z,21.40
2023-05-10T08:26:20.195Z,20.40
2023-05-10T08:28:48.903Z,20.50
2023-05-10T08:31:17.976Z,20.80
2023-05-10T08:33:46.877Z,20.40
2023-05-10T08:36:20.796Z,20.50
2023-05-10T08:38:50.280Z,21.00
2023-05-10T08:41:22.814Z,21.30
2023-05-10T08:43:52.636Z,20.70
2023-05-10T08:46:24.406Z,20.90
2023-05-10T08:48:55.830Z,21.30
2023-05-10T08:51:28.905Z,21.10
2023-05-10T08:53:58.166Z,21.20
2023-05-10T08:56:28.766Z,21.40
2023-05-10T08:58:58.580Z,21.50
2023-05-10T09:01:29.282Z,21.70
2023-05-10T09:04:00.390Z,21.00
2023-05-10T09:06:29.803Z,20.50
2023-05-10T09:08:59.630Z,20.00
2023-05-10T09:11:31.118Z,19.50
2023-05-10T09:13:59.772Z,20.20
2023-05-10T09:16:28.648Z,20.60
2023-05-10T09:18:57.423Z,21.00
2023-05-10T09:21:26.154Z,21.10
2023-05-10T09:23:55.407Z,21.50
2023-05-10T09:26:28.776Z,21.00
2023-05-10T09:29:00.710Z,20.40
2023-05-10T09:31:48.611Z,20.40
2023-05-10T09:34:22.982Z,20.10
2023-05-10T09:36:57.285Z,20.40
2023-05-10T09:39:36.926Z,20.80
2023-05-10T09:42:09.752Z,20.50
2023-05-10T09:44:39.190Z,20.50
2023-05-10T09:47:07.807Z,21.00
2023-05-10T09:49:37.340Z,20.80
2023-05-10T09:52:08.551Z,20.80
2023-05-10T09:54:37.426Z,21.00
2023-05-10T09:57:07.507Z,20.90
2023-05-10T09:59:37.274Z,20.70
2023-05-10T10:02:06.136Z,20.20
2023-05-10T10:04:41.147Z,19.60
2023-05-10T10:07:10.127Z,20.10
2023-05-10T10:09:38.881Z,20.20
2023-05-10T10:12:09.780Z,20.30
2023-05-10T10:14:38.606Z,19.90
2023-05-10T10:17:08.895Z,19.30
2023-05-10T10:19:38.418Z,19.40
2023-05-10T10:22:07.820Z,19.90
2023-05-10T10:24:36.582Z,20.20
2023-05-10T10:27:22.787Z,20.30
2023-05-10T10:30:13.229Z,20.30
2023-05-10T10:33:27.201Z,20.40
2023-05-10T10:36:00.048Z,19.70
2023-05-10T10:38:39.571Z,19.20
2023-05-10T10:41:30.104Z,19.20
2023-05-10T10:44:36.555Z,19.70
2023-05-10T10:47:25.867Z,20.10
2023-05-10T10:50:06.776Z,19.70
2023-05-10T10:52:37.310Z,19.40
2023-05-10T10:55:09.494Z,19.00
2023-05-10T10:57:52.103Z,19.30
2023-05-10T11:00:38.944Z,19.40
2023-05-10T11:03:11.818Z,19.30
2023-05-10T11:05:44.937Z,19.30
2023-05-10T11:08:20.270Z,19.40
2023-05-10T11:11:11.521Z,19.70
2023-05-10T11:13:45.003Z,19.50
2023-05-10T11:16:24.661Z,19.30
2023-05-10T11:19:04.745Z,19.30
2023-05-10T11:21:34.719Z,19.70
2023-05-10T11:24:07.292Z,19.60
2023-05-10T11:26:38.251Z,19.70
2023-05-10T11:29:06.993Z,19.20
2023-05-10T11:31:37.637Z,18.90
2023-05-10T11:34:06.392Z,19.10
2023-05-10T11:36:38.516Z,19.30
2023-05-10T11:39:08.111Z,19.30
2023-05-10T11:41:36.784Z,19.10
2023-05-10T11:44:06.018Z,19.10
2023-05-10T11:46:36.193Z,19.20
2023-05-10T11:49:08.029Z,19.40
2023-05-10T11:51:38.253Z,19.00
2023-05-10T11:54:10.720Z,18.90
2023-05-10T11:56:39.962Z,18.80
2023-05-10T11:59:09.433Z,18.90
2023-05-10T12:01:39.765Z,19.20
2023-05-10T12:04:09.129Z,19.10
2023-05-10T12:06:43.205Z,18.90
2023-05-10T12:09:11.986Z,18.90
2023-05-10T12:11:44.326Z,19.20
2023-05-10T12:14:13.705Z,19.50
2023-05-10T12:16:46.246Z,19.50
2023-05-10T12:19:14.955Z,19.30
2023-05-10T12:21:43.857Z,19.20
2023-05-10T12:24:13.145Z,19.30
2023-05-10T12:29:32.504Z,19.10
2023-05-10T12:32:02.871Z,18.80
2023-05-10T12:34:35.315Z,18.80
2023-05-10T12:37:05.329Z,18.80
2023-05-10T12:39:45.350Z,18.90
2023-05-10T12:42:14.285Z,18.90
2023-05-10T12:44:42.956Z,18.90
2023-05-10T12:47:12.997Z,19.10
2023-05-10T12:49:41.603Z,19.20
2023-05-10T12:52:10.261Z,19.20
2023-05-10T12:54:39.004Z,19.10
2023-05-10T12:57:07.623Z,19.40
2023-05-10T12:59:38.075Z,19.50
2023-05-10T13:02:07.270Z,19.30
2023-05-10T13:04:38.654Z,19.20
2023-05-10T13:07:07.636Z,19.10
2023-05-10T13:09:36.547Z,19.30
2023-05-10T13:12:06.436Z,19.20
2023-05-10T13:14:36.405Z,19.10
2023-05-10T13:17:05.164Z,19.30
2023-05-10T13:19:33.917Z,19.40
2023-05-10T13:22:03.944Z,19.10
2023-05-10T13:24:32.626Z,19.00
2023-05-10T13:27:01.340Z,19.00
2023-05-10T13:29:30.010Z,19.00
2023-05-10T13:31:58.820Z,19.10
2023-05-10T13:34:27.560Z,19.20
2023-05-10T13:36:57.193Z,19.30
2023-05-10T13:39:27.299Z,19.30
2023-05-10T13:41:55.913Z,19.40
2023-05-10T13:44:24.710Z,19.40
2023-05-10T13:46:53.384Z,19.40
2023-05-10T13:49:22.604Z,19.50
2023-05-10T13:51:54.171Z,19.50
2023-05-10T13:54:23.311Z,19.50
2023-05-10T13:56:53.335Z,19.50
2023-05-10T13:59:21.997Z,19.60
2023-05-10T14:01:50.727Z,19.70
2023-05-10T14:04:19.581Z,19.80
2023-05-10T14:06:48.274Z,19.70
2023-05-10T14:09:17.061Z,19.50
2023-05-10T14:11:46.100Z,19.30
2023-05-10T14:14:16.253Z,19.30
2023-05-10T14:16:47.410Z,19.40
2023-05-10T14:19:16.327Z,19.60
2023-05-10T14:21:45.422Z,19.60
2023-05-10T14:24:14.130Z,19.60
2023-05-10T14:26:42.813Z,19.60
2023-05-10T14:29:12.570Z,19.50
2023-05-10T14:31:43.087Z,19.60
2023-05-10T14:34:14.159Z,19.50
2023-05-10T14:36:42.833Z,19.40
2023-05-10T14:39:13.819Z,19.50
2023-05-10T14:41:44.066Z,19.40
2023-05-10T14:44:12.895Z,19.40
2023-05-10T14:46:43.077Z,19.40
2023-05-10T14:49:11.674Z,19.40
2023-05-10T14:51:40.362Z,19.40
2023-05-10T14:54:09.069Z,19.30
2023-05-10T14:56:38.390Z,19.30
2023-05-10T14:59:06.991Z,19.30
2023-05-10T15:01:38.597Z,19.40
2023-05-10T15:04:09.083Z,19.40
2023-05-10T15:06:38.362Z,19.40
2023-05-10T15:09:07.381Z,19.40
2023-05-10T15:11:36.040Z,19.50
2023-05-10T15:14:04.678Z,19.40
2023-05-10T15:16:35.813Z,19.40
2023-05-10T15:19:05.088Z,19.40
2023-05-10T15:21:39.818Z,19.50
2023-05-10T15:24:08.726Z,19.50
2023-05-10T15:26:37.525Z,19.50
2023-05-10T15:29:06.538Z,19.60
2023-05-10T15:31:36.238Z,19.60
2023-05-10T15:34:05.021Z,19.70
2023-05-10T15:36:35.733Z,19.50
2023-05-10T15:39:05.110Z,19.50
2023-05-10T15:41:34.202Z,19.50
2023-05-10T15:44:02.822Z,19.50
2023-05-10T15:46:32.328Z,19.40
2023-05-10T15:49:01.156Z,19.30
2023-05-10T15:51:29.931Z,19.30
2023-05-10T15:54:07.149Z,19.30
2023-05-10T15:56:37.262Z,19.30
2023-05-10T15:59:08.655Z,19.30
2023-05-10T16:01:37.539Z,19.30
2023-05-10T16:04:06.349Z,19.40
2023-05-10T16:06:35.068Z,19.30
2023-05-10T16:09:13.625Z,19.30
2023-05-10T16:11:44.230Z,19.20
2023-05-10T16:14:13.201Z,19.20
2023-05-10T16:16:42.175Z,19.30
2023-05-10T16:19:10.942Z,19.40
2023-05-10T16:21:39.762Z,19.30
2023-05-10T16:24:09.923Z,19.30
2023-05-10T16:26:41.154Z,19.30
2023-05-10T16:29:10.562Z,19.30
2023-05-10T16:31:39.354Z,19.20
2023-05-10T16:34:08.237Z,19.20
2023-05-10T16:36:36.984Z,19.20
2023-05-10T16:39:05.824Z,19.20
2023-05-10T16:41:36.912Z,19.20
2023-05-10T16:44:05.687Z,19.20
2023-05-10T16:46:34.660Z,19.20
2023-05-10T16:49:03.505Z,19.10
2023-05-10T16:51:32.218Z,19.10
2023-05-10T16:54:01.537Z,19.10
2023-05-10T16:56:33.682Z,19.00
2023-05-10T16:59:03.984Z,19.00
2023-05-10T17:01:32.747Z,19.10
2023-05-10T17:04:01.510Z,19.10
2023-05-10T17:06:30.186Z,19.00
2023-05-10T17:08:58.827Z,19.00
2023-05-10T17:11:27.623Z,18.90
2023-05-10T17:13:56.391Z,18.90
2023-05-10T17:16:27.084Z,18.80
2023-05-10T17:18:55.791Z,18.80
2023-05-10T17:21:24.630Z,18.80
2023-05-10T17:23:53.407Z,18.70
2023-05-10T17:27:37.885Z,18.50
2023-05-10T17:30:09.485Z,18.40
2023-05-10T17:32:39.609Z,18.30
2023-05-10T17:35:09.971Z,18.30
2023-05-10T17:37:40.039Z,18.30
2023-05-10T17:40:10.968Z,18.30
2023-05-10T17:42:39.873Z,18.20
2023-05-10T17:45:10.583Z,18.20
2023-05-10T17:47:40.898Z,18.10
2023-05-10T17:50:11.338Z,18.20
2023-05-10T17:52:40.108Z,18.10
2023-05-10T17:55:11.084Z,18.00
2023-05-10T17:57:40.041Z,18.00
2023-05-10T18:00:10.512Z,18.00
2023-05-10T18:02:40.742Z,18.00
2023-05-10T18:05:19.187Z,18.00
2023-05-10T18:07:48.188Z,17.90
2023-05-10T18:10:16.856Z,17.90
2023-05-10T18:12:45.571Z,17.90
2023-05-10T18:15:14.379Z,17.80
2023-05-10T18:17:44.704Z,17.80
2023-05-10T18:20:14.121Z,17.80
2023-05-10T18:22:43.489Z,17.80
2023-05-10T18:25:12.510Z,17.80
2023-05-10T18:27:41.574Z,17.90
2023-05-10T18:30:12.556Z,17.80
2023-05-10T18:32:43.295Z,17.70
2023-05-10T18:35:12.802Z,17.70
2023-05-10T18:37:42.789Z,17.60
2023-05-10T18:40:14.866Z,17.60
2023-05-10T18:42:44.182Z,17.50
2023-05-10T18:45:13.795Z,17.40
2023-05-10T18:47:44.154Z,17.30
2023-05-10T18:50:13.797Z,17.30
2023-05-10T18:52:43.221Z,17.30
2023-05-10T18:55:14.509Z,17.10
2023-05-10T18:57:43.666Z,17.10
2023-05-10T19:00:14.801Z,17.10
2023-05-10T19:02:45.251Z,17.10
2023-05-10T19:05:15.939Z,17.00
2023-05-10T19:07:45.128Z,17.00
2023-05-10T19:10:14.804Z,17.00
2023-05-10T19:12:43.661Z,16.90
2023-05-10T19:15:12.967Z,16.90
2023-05-10T19:17:43.131Z,16.70
2023-05-10T19:20:13.805Z,16.60
2023-05-10T19:22:58.145Z,16.60
2023-05-10T19:25:34.320Z,16.60
2023-05-10T19:28:03.086Z,16.60
2023-05-10T19:30:32.479Z,16.40
2023-05-10T19:33:04.855Z,16.40
2023-05-10T19:35:35.085Z,16.40
2023-05-10T19:38:03.770Z,16.30
2023-05-10T19:40:32.609Z,16.20
2023-05-10T19:43:01.767Z,16.20
2023-05-10T19:45:30.631Z,16.20
2023-05-10T19:47:59.660Z,16.20
2023-05-10T19:50:28.357Z,16.20
2023-05-10T19:52:59.397Z,16.20
2023-05-10T19:55:31.314Z,16.20
2023-05-10T19:58:01.689Z,16.20
2023-05-10T20:00:30.837Z,16.20
2023-05-10T20:03:00.201Z,16.10
2023-05-10T20:05:29.901Z,16.00
2023-05-10T20:08:00.019Z,16.00
2023-05-10T20:10:28.716Z,16.00
2023-05-10T20:12:58.839Z,16.00
2023-05-10T20:15:28.273Z,15.90
2023-05-10T20:17:57.185Z,15.80
2023-05-10T20:20:25.956Z,15.80
2023-05-10T20:22:54.689Z,15.90
2023-05-10T20:25:24.929Z,16.00
2023-05-10T20:27:53.557Z,16.10
2023-05-10T20:30:23.138Z,16.10
2023-05-10T20:32:52.008Z,16.10
2023-05-10T20:35:20.992Z,16.00
2023-05-10T20:37:49.655Z,16.00
2023-05-10T20:40:18.639Z,16.00
2023-05-10T20:42:49.634Z,16.00
2023-05-10T20:45:18.412Z,16.00
2023-05-10T20:47:47.110Z,15.90
2023-05-10T20:50:15.953Z,15.90
2023-05-10T20:52:44.737Z,15.90
2023-05-10T20:55:13.421Z,15.80
2023-05-10T20:57:42.070Z,15.80
2023-05-10T21:00:14.303Z,15.80
2023-05-10T21:02:46.155Z,15.70
2023-05-10T21:05:14.849Z,15.70
2023-05-10T21:07:43.590Z,15.60
2023-05-10T21:10:13.147Z,15.60
2023-05-10T21:12:42.040Z,15.60
2023-05-10T21:15:13.308Z,15.50
2023-05-10T21:17:42.113Z,15.40
2023-05-10T21:20:12.671Z,15.50
2023-05-10T21:22:41.505Z,15.60
2023-05-10T21:25:11.131Z,15.70
2023-05-10T21:27:40.147Z,15.60
2023-05-10T21:30:12.497Z,15.60
2023-05-10T21:32:41.573Z,15.60
2023-05-10T21:35:11.199Z,15.50
2023-05-10T21:37:40.029Z,15.50
2023-05-10T21:40:09.985Z,15.50
2023-05-10T21:42:38.665Z,15.50
2023-05-10T21:45:08.606Z,15.40
2023-05-10T21:47:38.687Z,15.30
2023-05-10T21:50:10.160Z,15.30
2023-05-10T21:52:39.114Z,15.20
2023-05-10T21:55:10.013Z,15.20
2023-05-10T21:57:39.060Z,15.20
2023-05-10T22:00:10.276Z,15.10
2023-05-10T22:02:40.993Z,15.20
2023-05-10T22:05:10.767Z,15.20
2023-05-10T22:07:39.601Z,15.30
2023-05-10T22:10:10.368Z,15.30
2023-05-10T22:12:39.034Z,15.20
2023-05-10T22:15:10.685Z,15.10
2023-05-10T22:17:42.165Z,15.10
2023-05-10T22:20:11.732Z,15.20
2023-05-10T22:22:40.620Z,15.20
2023-05-10T22:25:10.434Z,15.20
2023-05-10T22:27:39.217Z,15.10
2023-05-10T22:30:09.962Z,15.10
2023-05-10T22:32:40.192Z,15.00
2023-05-10T22:35:10.294Z,15.10
2023-05-10T22:37:39.030Z,15.10
2023-05-10T22:40:09.782Z,15.10
2023-05-10T22:42:38.588Z,15.00
2023-05-10T22:45:09.193Z,15.00
2023-05-10T22:47:38.023Z,15.00
2023-05-10T22:50:10.078Z,15.00
2023-05-10T22:52:39.999Z,14.90
2023-05-10T22:55:10.720Z,14.90
2023-05-10T22:57:39.500Z,14.90
2023-05-10T23:00:10.013Z,14.90
2023-05-10T23:02:38.687Z,14.80
2023-05-10T23:05:10.872Z,14.80
2023-05-10T23:07:39.505Z,14.80
2023-05-10T23:10:09.314Z,14.80
2023-05-10T23:12:38.130Z,14.90
2023-05-10T23:15:08.197Z,14.80
2023-05-10T23:17:37.007Z,14.80
2023-05-10T23:20:06.618Z,14.80
2023-05-10T23:22:36.747Z,14.60
2023-05-10T23:25:05.952Z,14.60
2023-05-10T23:27:34.740Z,14.70
2023-05-10T23:30:03.734Z,14.70
2023-05-10T23:32:33.069Z,14.70
2023-05-10T23:35:02.069Z,14.70
2023-05-10T23:37:30.748Z,14.70
2023-05-10T23:40:00.942Z,14.70
2023-05-10T23:42:29.631Z,14.60
2023-05-10T23:44:58.595Z,14.60
2023-05-10T23:47:27.321Z,14.50
2023-05-10T23:49:56.352Z,14.60
2023-05-10T23:52:25.358Z,14.60
2023-05-10T23:54:54.774Z,14.60
2023-05-10T23:57:24.939Z,14.60
2023-05-10T23:59:53.696Z,14.40
